Dredge 32 — WTC3235 — position and weather

sailwx.info

Track history (hours):
 
Tides and Currents Weather Stations Pressure Air Temp Water Temp Dewpoint Dewpoint Depression Visibility Wind Speed Wind Dir Waves Ship Positions

Dredge 32

Owner: MIKE HOOKS INC, LAKE CHARLES, LA. More information available from US FCC via Universal Licensing System and Coast Guard Vessel Documentation Center.

Last reported at 2017-Oct-24 08:33 UTC. Time now 2017-Nov-21 11:58 UTC.
Position N 29°44' W 093°52'.
Warning: this ship's position is 28 days out of date.

Length 91 m.

Type: Other ship. MMSI: 367338310.

Date/timePositionNaut miles runAvg speedWind from/ knotsBaromVisibWave heightAir tempDewpointWater temp
2017-Oct-24 08:33N 29°44' W 093°52'0 0.0
2017-Oct-24 08:26N 29°44' W 093°52'0 0.0
2017-Oct-24 08:00N 29°44' W 093°52'0 0.0
2017-Oct-24 07:23N 29°44' W 093°52'0 0.0
2017-Oct-24 05:53N 29°44' W 093°52'0 0.0
2017-Oct-24 05:29N 29°44' W 093°52'0 0.0
2017-Oct-24 04:15N 29°44' W 093°52'0 0.0
2017-Oct-23 13:34N 29°44' W 093°52'0 0.2
2017-Oct-23 13:30N 29°44' W 093°52'0 0.0
2017-Oct-23 13:00N 29°44' W 093°52'0 0.0
2017-Oct-23 11:40N 29°44' W 093°52'0 0.0
2017-Oct-23 11:28N 29°44' W 093°52'  
2017-Oct-20 15:22N 29°44' W 093°52'0 0.0
2017-Oct-20 14:48N 29°44' W 093°52'0 0.0
2017-Oct-20 14:29N 29°44' W 093°52'0 0.0
2017-Oct-20 03:10N 29°44' W 093°52'0 0.0
2017-Oct-20 02:52N 29°44' W 093°52'0 0.0
2017-Oct-20 02:26N 29°44' W 093°52'0 0.0
2017-Oct-19 14:44N 29°44' W 093°52'0 0.1
2017-Oct-19 14:30N 29°44' W 093°52'0 0.2
2017-Oct-19 14:00N 29°44' W 093°52'0 0.0
2017-Oct-19 13:30N 29°44' W 093°52'20 1.6
2017-Oct-19 00:41N 30°03' W 093°43'3 2.0
2017-Oct-18 23:11N 30°04' W 093°40'0 2.2
2017-Oct-18 22:59N 30°04' W 093°39'1 2.2
2017-Oct-18 22:20N 30°04' W 093°38'1 2.2
2017-Oct-18 22:00N 30°04' W 093°37'1 1.8
2017-Oct-18 21:25N 30°04' W 093°36'1 1.9
2017-Oct-18 21:00N 30°04' W 093°35'1 2.0
2017-Oct-18 20:30N 30°04' W 093°34'1 2.0
2017-Oct-18 20:00N 30°04' W 093°33'1 2.1
2017-Oct-18 19:30N 30°04' W 093°31'1 2.3
2017-Oct-18 19:00N 30°04' W 093°30'1 2.2
2017-Oct-18 18:30N 30°04' W 093°29'1 2.2
2017-Oct-18 18:00N 30°04' W 093°27'1 2.1
2017-Oct-18 17:30N 30°04' W 093°26'1 2.2
2017-Oct-18 17:00N 30°04' W 093°25'1 2.2
2017-Oct-18 16:30N 30°04' W 093°24'1 2.0
2017-Oct-18 16:00N 30°04' W 093°23'1 2.1
2017-Oct-18 15:30N 30°04' W 093°21'1 2.2
2017-Oct-18 15:00N 30°04' W 093°20'3 2.7
2017-Oct-18 14:00N 30°07' W 093°20'2 3.1
2017-Oct-18 13:30N 30°09' W 093°20'1 2.6
2017-Oct-18 13:00N 30°10' W 093°19'1 2.7
2017-Oct-18 12:30N 30°11' W 093°19'1 1.2
2017-Oct-18 12:00N 30°11' W 093°18'0 0.0
2017-Oct-18 11:30N 30°11' W 093°18'0 0.0
2017-Oct-18 11:00N 30°11' W 093°18'0 0.0
2017-Oct-18 10:30N 30°11' W 093°18'0 0.0
2017-Oct-18 10:00N 30°11' W 093°18'0 0.0
2017-Oct-18 09:30N 30°11' W 093°18'0 0.0
2017-Oct-18 09:00N 30°11' W 093°18'0 0.0
2017-Oct-18 08:30N 30°11' W 093°18'0 0.0
2017-Oct-18 08:00N 30°11' W 093°18'0 0.0
2017-Oct-18 07:30N 30°11' W 093°18'0 0.0
2017-Oct-18 07:00N 30°11' W 093°18'0 0.0
2017-Oct-18 06:30N 30°11' W 093°18'0 0.0
2017-Oct-18 06:00N 30°11' W 093°18'0 0.0
2017-Oct-18 05:30N 30°11' W 093°18'0 0.0
2017-Oct-18 05:00N 30°11' W 093°18'0 0.2
2017-Oct-18 04:30N 30°11' W 093°18'0 0.0
2017-Oct-18 04:00N 30°11' W 093°18'0 0.0
2017-Oct-18 03:30N 30°11' W 093°18'0 0.0
2017-Oct-18 03:00N 30°11' W 093°18'0 0.0
2017-Oct-18 02:30N 30°11' W 093°18'0 0.0
2017-Oct-18 02:00N 30°11' W 093°18'0 0.0
2017-Oct-18 01:30N 30°11' W 093°18'0 0.0
2017-Oct-18 01:00N 30°11' W 093°18'0 0.0
2017-Oct-18 00:30N 30°11' W 093°18'0 0.2
2017-Oct-18 00:00N 30°11' W 093°18'0 0.0
2017-Oct-17 23:30N 30°11' W 093°18'0 0.0
2017-Oct-17 23:00N 30°11' W 093°18'0 0.0
2017-Oct-17 22:30N 30°11' W 093°18'0 0.0
2017-Oct-17 22:00N 30°11' W 093°18'0 0.0
2017-Oct-17 21:30N 30°11' W 093°18'0 0.0
2017-Oct-17 21:00N 30°11' W 093°18'0 0.0
2017-Oct-17 20:30N 30°11' W 093°18'0 0.0
2017-Oct-17 20:00N 30°11' W 093°18'0 0.0
2017-Oct-17 19:30N 30°11' W 093°18'0 0.0
2017-Oct-17 19:00N 30°11' W 093°18'0 0.0
2017-Oct-17 18:30N 30°11' W 093°18'0 0.0
2017-Oct-17 18:00N 30°11' W 093°18'0 0.0
2017-Oct-17 17:30N 30°11' W 093°18'0 0.0
2017-Oct-17 17:00N 30°11' W 093°18'0 0.0
2017-Oct-17 16:30N 30°11' W 093°18'0 0.0
2017-Oct-17 16:00N 30°11' W 093°18'0 0.0
2017-Oct-17 15:30N 30°11' W 093°18'0 0.0
2017-Oct-17 15:00N 30°11' W 093°18'0 0.0
2017-Oct-17 14:30N 30°11' W 093°18'0 0.0
2017-Oct-17 14:00N 30°11' W 093°18'0 0.0
2017-Oct-17 13:30N 30°11' W 093°18'0 0.0
2017-Oct-17 13:00N 30°11' W 093°18'0 0.0
2017-Oct-17 12:30N 30°11' W 093°18'0 0.0
2017-Oct-17 12:00N 30°11' W 093°18'0 0.0
2017-Oct-17 11:30N 30°11' W 093°18'0 0.1
2017-Oct-17 11:00N 30°11' W 093°18'0 0.0
2017-Oct-17 10:30N 30°11' W 093°18'0 0.0
2017-Oct-17 10:00N 30°11' W 093°18'0 0.0
2017-Oct-17 09:30N 30°11' W 093°18'0 0.0
2017-Oct-17 09:00N 30°11' W 093°18'0 0.0
2017-Oct-17 08:30N 30°11' W 093°18'0 0.0
2017-Oct-17 08:00N 30°11' W 093°18'0 0.0
2017-Oct-17 07:30N 30°11' W 093°18'0 0.0
2017-Oct-17 07:00N 30°11' W 093°18'0 0.0
2017-Oct-17 06:30N 30°11' W 093°18'0 0.0
2017-Oct-17 06:00N 30°11' W 093°18'0 0.0
2017-Oct-17 05:30N 30°11' W 093°18'0 0.0
2017-Oct-17 05:00N 30°11' W 093°18'0 0.0
2017-Oct-17 04:30N 30°11' W 093°18'0 0.0
2017-Oct-17 04:00N 30°11' W 093°18'0 0.0
2017-Oct-17 03:30N 30°11' W 093°18'0 0.0
2017-Oct-17 03:00N 30°11' W 093°18'0 0.0
2017-Oct-17 02:30N 30°11' W 093°18'0 0.0
2017-Oct-17 02:00N 30°11' W 093°18'0 0.0
2017-Oct-17 01:30N 30°11' W 093°18'0 0.0
2017-Oct-17 01:00N 30°11' W 093°18'0 0.1
2017-Oct-17 00:30N 30°11' W 093°18'0 0.0
2017-Oct-17 00:00N 30°11' W 093°18'0 0.0
2017-Oct-16 23:30N 30°11' W 093°18'0 0.0
2017-Oct-16 23:00N 30°11' W 093°18'0 0.0
2017-Oct-16 22:30N 30°11' W 093°18'0 0.0
2017-Oct-16 22:00N 30°11' W 093°18'0 0.1
2017-Oct-16 21:30N 30°11' W 093°18'0 0.0
2017-Oct-16 21:00N 30°11' W 093°18'0 0.0
2017-Oct-16 20:30N 30°11' W 093°18'0 0.0
2017-Oct-16 20:00N 30°11' W 093°18'0 0.0
2017-Oct-16 19:30N 30°11' W 093°18'0 0.0
2017-Oct-16 19:00N 30°11' W 093°18'0 0.0
2017-Oct-16 18:30N 30°11' W 093°18'0 0.0
2017-Oct-16 18:00N 30°11' W 093°18'0 0.1
2017-Oct-16 17:30N 30°11' W 093°18'0 0.0
2017-Oct-16 17:00N 30°11' W 093°18'0 0.0
2017-Oct-16 16:30N 30°11' W 093°18'0 0.0
2017-Oct-16 16:00N 30°11' W 093°18'0 0.0
2017-Oct-16 15:30N 30°11' W 093°18'0 0.0
2017-Oct-16 15:00N 30°11' W 093°18'0 0.0
2017-Oct-16 14:30N 30°11' W 093°18'0 0.0
2017-Oct-16 13:30N 30°11' W 093°18'0 0.0
2017-Oct-16 13:00N 30°11' W 093°18'0 0.3
2017-Oct-16 12:30N 30°11' W 093°18'0 0.0
2017-Oct-16 12:00N 30°11' W 093°18'0 0.0
2017-Oct-16 11:30N 30°11' W 093°18'0 0.0
2017-Oct-16 11:00N 30°11' W 093°18'0 0.0
2017-Oct-16 10:30N 30°11' W 093°18'0 0.0
2017-Oct-16 10:00N 30°11' W 093°18'0 0.0
2017-Oct-16 09:30N 30°11' W 093°18'0 0.0
2017-Oct-16 09:00N 30°11' W 093°18'0 0.0
2017-Oct-16 08:30N 30°11' W 093°18'0 0.0
2017-Oct-16 08:00N 30°11' W 093°18'0 0.0
2017-Oct-16 07:30N 30°11' W 093°18'0 0.0
2017-Oct-16 07:00N 30°11' W 093°18'0 0.0
2017-Oct-16 06:30N 30°11' W 093°18'0 0.0
2017-Oct-16 06:00N 30°11' W 093°18'0 0.0
2017-Oct-16 05:30N 30°11' W 093°18'0 0.0
2017-Oct-16 05:00N 30°11' W 093°18'0 0.0
2017-Oct-16 04:30N 30°11' W 093°18'0 0.0
2017-Oct-16 04:00N 30°11' W 093°18'0 0.0
2017-Oct-16 03:31N 30°11' W 093°18'0 0.0
2017-Oct-16 03:00N 30°11' W 093°18'0 0.0
2017-Oct-16 02:30N 30°11' W 093°18'0 0.0
2017-Oct-16 02:00N 30°11' W 093°18'0 0.0
2017-Oct-16 01:30N 30°11' W 093°18'0 0.0
2017-Oct-16 01:00N 30°11' W 093°18'0 0.0
2017-Oct-16 00:30N 30°12' W 093°18'0 0.0
2017-Oct-16 00:00N 30°12' W 093°18'0 0.0
2017-Oct-15 23:30N 30°12' W 093°18'0 0.0
2017-Oct-15 23:00N 30°12' W 093°18'0 0.0
2017-Oct-15 22:30N 30°11' W 093°18'0 0.0
2017-Oct-15 22:00N 30°11' W 093°18'0 0.0
2017-Oct-15 21:30N 30°12' W 093°18'0 0.0
2017-Oct-15 21:00N 30°11' W 093°18'0 0.0
2017-Oct-15 20:30N 30°11' W 093°18'0 0.0
2017-Oct-15 20:00N 30°11' W 093°18'0 0.0
2017-Oct-15 19:30N 30°11' W 093°18'0 0.0
2017-Oct-15 19:00N 30°11' W 093°18'0 0.1
2017-Oct-15 18:30N 30°12' W 093°18'0 0.1
2017-Oct-15 18:00N 30°11' W 093°18'0 0.0
2017-Oct-15 17:30N 30°11' W 093°18'0 0.0
2017-Oct-15 17:00N 30°11' W 093°18'0 0.0
2017-Oct-15 16:30N 30°11' W 093°18'0 0.0
2017-Oct-15 16:00N 30°11' W 093°18'0 0.0
2017-Oct-15 15:30N 30°11' W 093°18'0 0.3
2017-Oct-15 15:00N 30°11' W 093°18'0 0.0
2017-Oct-15 14:00N 30°11' W 093°18'0 0.0
2017-Oct-15 13:30N 30°11' W 093°18'0 0.0
2017-Oct-15 13:00N 30°11' W 093°18'0 0.1
2017-Oct-15 12:30N 30°11' W 093°18'0 0.1
2017-Oct-15 12:00N 30°11' W 093°18'0 0.0
2017-Oct-15 11:30N 30°11' W 093°18'0 0.0
2017-Oct-15 11:00N 30°11' W 093°18'0 0.1
2017-Oct-15 10:30N 30°11' W 093°18'0 0.1
2017-Oct-15 10:00N 30°11' W 093°18'0 0.0
2017-Oct-15 09:30N 30°11' W 093°18'0 0.0
2017-Oct-15 09:00N 30°11' W 093°18'0 0.0
2017-Oct-15 08:30N 30°11' W 093°18'0 0.1
2017-Oct-15 08:00N 30°11' W 093°18'0 0.0
2017-Oct-15 07:30N 30°11' W 093°18'0 0.0
2017-Oct-15 07:00N 30°11' W 093°18'0 0.0
2017-Oct-15 06:30N 30°11' W 093°18'0 0.0
2017-Oct-15 06:00N 30°11' W 093°18'0 0.0
2017-Oct-15 05:30N 30°11' W 093°18'0 0.0
2017-Oct-15 05:00N 30°11' W 093°18'0 0.1
2017-Oct-15 04:30N 30°11' W 093°18'0 0.0
2017-Oct-15 04:00N 30°11' W 093°18'0 0.0
2017-Oct-15 03:30N 30°11' W 093°18'0 0.0
2017-Oct-15 03:00N 30°11' W 093°18'0 0.0
2017-Oct-15 02:30N 30°11' W 093°18'0 0.0
2017-Oct-15 02:00N 30°11' W 093°18'0 0.0
2017-Oct-15 01:30N 30°11' W 093°18'0 0.0
2017-Oct-15 01:00N 30°11' W 093°18'0 0.0
2017-Oct-15 00:30N 30°11' W 093°18'0 0.0
2017-Oct-15 00:00N 30°11' W 093°18'0 0.0
2017-Oct-14 23:30N 30°11' W 093°18'0 0.0
2017-Oct-14 23:00N 30°11' W 093°18'0 0.0
2017-Oct-14 22:30N 30°11' W 093°18'0 0.0
2017-Oct-14 22:00N 30°11' W 093°18'0 0.0
2017-Oct-14 21:30N 30°11' W 093°18'0 0.0
2017-Oct-14 21:00N 30°11' W 093°18'0 0.0
2017-Oct-14 20:30N 30°11' W 093°18'0 0.0
2017-Oct-14 20:00N 30°11' W 093°18'0 0.0
2017-Oct-14 19:30N 30°11' W 093°18'0 0.0
2017-Oct-14 19:00N 30°11' W 093°18'0 0.0
2017-Oct-14 18:30N 30°11' W 093°18'0 0.0
2017-Oct-14 18:00N 30°11' W 093°18'0 0.0
2017-Oct-14 17:30N 30°11' W 093°18'0 0.0
2017-Oct-14 17:00N 30°11' W 093°18'0 0.0
2017-Oct-14 16:16N 30°11' W 093°18'0 0.0
2017-Oct-14 16:00N 30°11' W 093°18'0 0.0
2017-Oct-14 15:30N 30°11' W 093°18'0 0.0
2017-Oct-14 15:00N 30°11' W 093°18'0 0.0
2017-Oct-14 14:30N 30°11' W 093°18'0 0.0
2017-Oct-14 14:00N 30°11' W 093°18'0 0.0
2017-Oct-14 13:30N 30°11' W 093°18'0 0.5
2017-Oct-14 13:00N 30°11' W 093°18'0 0.1
2017-Oct-14 12:30N 30°12' W 093°18'0 0.0
2017-Oct-14 12:00N 30°12' W 093°18'0 0.0
2017-Oct-14 11:30N 30°12' W 093°18'0 0.0
2017-Oct-14 11:00N 30°12' W 093°18'0 0.0
2017-Oct-14 10:30N 30°12' W 093°18'0 0.1
2017-Oct-14 10:00N 30°11' W 093°18'0 0.0
2017-Oct-14 09:30N 30°12' W 093°18'0 0.0
2017-Oct-14 09:00N 30°12' W 093°18'  
Track history (hours):
 
Tides and Currents Weather Stations Pressure Air Temp Water Temp Dewpoint Dewpoint Depression Visibility Wind Speed Wind Dir Waves Ship Positions

Dredge 32

Owner: MIKE HOOKS INC, LAKE CHARLES, LA. More information available from US FCC via Universal Licensing System and Coast Guard Vessel Documentation Center.

Last reported at 2017-Oct-24 08:33 UTC. Time now 2017-Nov-21 11:58 UTC.
Position N 29°44' W 093°52'.
Warning: this ship's position is 28 days out of date.

Length 91 m.

Type: Other ship. MMSI: 367338310.

Date/timePositionNaut miles runAvg speedWind from/ knotsBaromVisibWave heightAir tempDewpointWater temp
2017-Oct-24 08:33N 29°44' W 093°52'0 0.0
2017-Oct-24 08:26N 29°44' W 093°52'0 0.0
2017-Oct-24 08:00N 29°44' W 093°52'0 0.0
2017-Oct-24 07:23N 29°44' W 093°52'0 0.0
2017-Oct-24 05:53N 29°44' W 093°52'0 0.0
2017-Oct-24 05:29N 29°44' W 093°52'0 0.0
2017-Oct-24 04:15N 29°44' W 093°52'0 0.0
2017-Oct-23 13:34N 29°44' W 093°52'0 0.2
2017-Oct-23 13:30N 29°44' W 093°52'0 0.0
2017-Oct-23 13:00N 29°44' W 093°52'0 0.0
2017-Oct-23 11:40N 29°44' W 093°52'0 0.0
2017-Oct-23 11:28N 29°44' W 093°52'  
2017-Oct-20 15:22N 29°44' W 093°52'0 0.0
2017-Oct-20 14:48N 29°44' W 093°52'0 0.0
2017-Oct-20 14:29N 29°44' W 093°52'0 0.0
2017-Oct-20 03:10N 29°44' W 093°52'0 0.0
2017-Oct-20 02:52N 29°44' W 093°52'0 0.0
2017-Oct-20 02:26N 29°44' W 093°52'0 0.0
2017-Oct-19 14:44N 29°44' W 093°52'0 0.1
2017-Oct-19 14:30N 29°44' W 093°52'0 0.2
2017-Oct-19 14:00N 29°44' W 093°52'0 0.0
2017-Oct-19 13:30N 29°44' W 093°52'20 1.6
2017-Oct-19 00:41N 30°03' W 093°43'3 2.0
2017-Oct-18 23:11N 30°04' W 093°40'0 2.2
2017-Oct-18 22:59N 30°04' W 093°39'1 2.2
2017-Oct-18 22:20N 30°04' W 093°38'1 2.2
2017-Oct-18 22:00N 30°04' W 093°37'1 1.8
2017-Oct-18 21:25N 30°04' W 093°36'1 1.9
2017-Oct-18 21:00N 30°04' W 093°35'1 2.0
2017-Oct-18 20:30N 30°04' W 093°34'1 2.0
2017-Oct-18 20:00N 30°04' W 093°33'1 2.1
2017-Oct-18 19:30N 30°04' W 093°31'1 2.3
2017-Oct-18 19:00N 30°04' W 093°30'1 2.2
2017-Oct-18 18:30N 30°04' W 093°29'1 2.2
2017-Oct-18 18:00N 30°04' W 093°27'1 2.1
2017-Oct-18 17:30N 30°04' W 093°26'1 2.2
2017-Oct-18 17:00N 30°04' W 093°25'1 2.2
2017-Oct-18 16:30N 30°04' W 093°24'1 2.0
2017-Oct-18 16:00N 30°04' W 093°23'1 2.1
2017-Oct-18 15:30N 30°04' W 093°21'1 2.2
2017-Oct-18 15:00N 30°04' W 093°20'3 2.7
2017-Oct-18 14:00N 30°07' W 093°20'2 3.1
2017-Oct-18 13:30N 30°09' W 093°20'1 2.6
2017-Oct-18 13:00N 30°10' W 093°19'1 2.7
2017-Oct-18 12:30N 30°11' W 093°19'1 1.2
2017-Oct-18 12:00N 30°11' W 093°18'0 0.0
2017-Oct-18 11:30N 30°11' W 093°18'0 0.0
2017-Oct-18 11:00N 30°11' W 093°18'0 0.0
2017-Oct-18 10:30N 30°11' W 093°18'0 0.0
2017-Oct-18 10:00N 30°11' W 093°18'0 0.0
2017-Oct-18 09:30N 30°11' W 093°18'0 0.0
2017-Oct-18 09:00N 30°11' W 093°18'0 0.0
2017-Oct-18 08:30N 30°11' W 093°18'0 0.0
2017-Oct-18 08:00N 30°11' W 093°18'0 0.0
2017-Oct-18 07:30N 30°11' W 093°18'0 0.0
2017-Oct-18 07:00N 30°11' W 093°18'0 0.0
2017-Oct-18 06:30N 30°11' W 093°18'0 0.0
2017-Oct-18 06:00N 30°11' W 093°18'0 0.0
2017-Oct-18 05:30N 30°11' W 093°18'0 0.0
2017-Oct-18 05:00N 30°11' W 093°18'0 0.2
2017-Oct-18 04:30N 30°11' W 093°18'0 0.0
2017-Oct-18 04:00N 30°11' W 093°18'0 0.0
2017-Oct-18 03:30N 30°11' W 093°18'0 0.0
2017-Oct-18 03:00N 30°11' W 093°18'0 0.0
2017-Oct-18 02:30N 30°11' W 093°18'0 0.0
2017-Oct-18 02:00N 30°11' W 093°18'0 0.0
2017-Oct-18 01:30N 30°11' W 093°18'0 0.0
2017-Oct-18 01:00N 30°11' W 093°18'0 0.0
2017-Oct-18 00:30N 30°11' W 093°18'0 0.2
2017-Oct-18 00:00N 30°11' W 093°18'0 0.0
2017-Oct-17 23:30N 30°11' W 093°18'0 0.0
2017-Oct-17 23:00N 30°11' W 093°18'0 0.0
2017-Oct-17 22:30N 30°11' W 093°18'0 0.0
2017-Oct-17 22:00N 30°11' W 093°18'0 0.0
2017-Oct-17 21:30N 30°11' W 093°18'0 0.0
2017-Oct-17 21:00N 30°11' W 093°18'0 0.0
2017-Oct-17 20:30N 30°11' W 093°18'0 0.0
2017-Oct-17 20:00N 30°11' W 093°18'0 0.0
2017-Oct-17 19:30N 30°11' W 093°18'0 0.0
2017-Oct-17 19:00N 30°11' W 093°18'0 0.0
2017-Oct-17 18:30N 30°11' W 093°18'0 0.0
2017-Oct-17 18:00N 30°11' W 093°18'0 0.0
2017-Oct-17 17:30N 30°11' W 093°18'0 0.0
2017-Oct-17 17:00N 30°11' W 093°18'0 0.0
2017-Oct-17 16:30N 30°11' W 093°18'0 0.0
2017-Oct-17 16:00N 30°11' W 093°18'0 0.0
2017-Oct-17 15:30N 30°11' W 093°18'0 0.0
2017-Oct-17 15:00N 30°11' W 093°18'0 0.0
2017-Oct-17 14:30N 30°11' W 093°18'0 0.0
2017-Oct-17 14:00N 30°11' W 093°18'0 0.0
2017-Oct-17 13:30N 30°11' W 093°18'0 0.0
2017-Oct-17 13:00N 30°11' W 093°18'0 0.0
2017-Oct-17 12:30N 30°11' W 093°18'0 0.0
2017-Oct-17 12:00N 30°11' W 093°18'0 0.0
2017-Oct-17 11:30N 30°11' W 093°18'0 0.1
2017-Oct-17 11:00N 30°11' W 093°18'0 0.0
2017-Oct-17 10:30N 30°11' W 093°18'0 0.0
2017-Oct-17 10:00N 30°11' W 093°18'0 0.0
2017-Oct-17 09:30N 30°11' W 093°18'0 0.0
2017-Oct-17 09:00N 30°11' W 093°18'0 0.0
2017-Oct-17 08:30N 30°11' W 093°18'0 0.0
2017-Oct-17 08:00N 30°11' W 093°18'0 0.0
2017-Oct-17 07:30N 30°11' W 093°18'0 0.0
2017-Oct-17 07:00N 30°11' W 093°18'0 0.0
2017-Oct-17 06:30N 30°11' W 093°18'0 0.0
2017-Oct-17 06:00N 30°11' W 093°18'0 0.0
2017-Oct-17 05:30N 30°11' W 093°18'0 0.0
2017-Oct-17 05:00N 30°11' W 093°18'0 0.0
2017-Oct-17 04:30N 30°11' W 093°18'0 0.0
2017-Oct-17 04:00N 30°11' W 093°18'0 0.0
2017-Oct-17 03:30N 30°11' W 093°18'0 0.0
2017-Oct-17 03:00N 30°11' W 093°18'0 0.0
2017-Oct-17 02:30N 30°11' W 093°18'0 0.0
2017-Oct-17 02:00N 30°11' W 093°18'0 0.0
2017-Oct-17 01:30N 30°11' W 093°18'0 0.0
2017-Oct-17 01:00N 30°11' W 093°18'0 0.1
2017-Oct-17 00:30N 30°11' W 093°18'0 0.0
2017-Oct-17 00:00N 30°11' W 093°18'0 0.0
2017-Oct-16 23:30N 30°11' W 093°18'0 0.0
2017-Oct-16 23:00N 30°11' W 093°18'0 0.0
2017-Oct-16 22:30N 30°11' W 093°18'0 0.0
2017-Oct-16 22:00N 30°11' W 093°18'0 0.1
2017-Oct-16 21:30N 30°11' W 093°18'0 0.0
2017-Oct-16 21:00N 30°11' W 093°18'0 0.0
2017-Oct-16 20:30N 30°11' W 093°18'0 0.0
2017-Oct-16 20:00N 30°11' W 093°18'0 0.0
2017-Oct-16 19:30N 30°11' W 093°18'0 0.0
2017-Oct-16 19:00N 30°11' W 093°18'0 0.0
2017-Oct-16 18:30N 30°11' W 093°18'0 0.0
2017-Oct-16 18:00N 30°11' W 093°18'0 0.1
2017-Oct-16 17:30N 30°11' W 093°18'0 0.0
2017-Oct-16 17:00N 30°11' W 093°18'0 0.0
2017-Oct-16 16:30N 30°11' W 093°18'0 0.0
2017-Oct-16 16:00N 30°11' W 093°18'0 0.0
2017-Oct-16 15:30N 30°11' W 093°18'0 0.0
2017-Oct-16 15:00N 30°11' W 093°18'0 0.0
2017-Oct-16 14:30N 30°11' W 093°18'0 0.0
2017-Oct-16 13:30N 30°11' W 093°18'0 0.0
2017-Oct-16 13:00N 30°11' W 093°18'0 0.3
2017-Oct-16 12:30N 30°11' W 093°18'0 0.0
2017-Oct-16 12:00N 30°11' W 093°18'0 0.0
2017-Oct-16 11:30N 30°11' W 093°18'0 0.0
2017-Oct-16 11:00N 30°11' W 093°18'0 0.0
2017-Oct-16 10:30N 30°11' W 093°18'0 0.0
2017-Oct-16 10:00N 30°11' W 093°18'0 0.0
2017-Oct-16 09:30N 30°11' W 093°18'0 0.0
2017-Oct-16 09:00N 30°11' W 093°18'0 0.0
2017-Oct-16 08:30N 30°11' W 093°18'0 0.0
2017-Oct-16 08:00N 30°11' W 093°18'0 0.0
2017-Oct-16 07:30N 30°11' W 093°18'0 0.0
2017-Oct-16 07:00N 30°11' W 093°18'0 0.0
2017-Oct-16 06:30N 30°11' W 093°18'0 0.0
2017-Oct-16 06:00N 30°11' W 093°18'0 0.0
2017-Oct-16 05:30N 30°11' W 093°18'0 0.0
2017-Oct-16 05:00N 30°11' W 093°18'0 0.0
2017-Oct-16 04:30N 30°11' W 093°18'0 0.0
2017-Oct-16 04:00N 30°11' W 093°18'0 0.0
2017-Oct-16 03:31N 30°11' W 093°18'0 0.0
2017-Oct-16 03:00N 30°11' W 093°18'0 0.0
2017-Oct-16 02:30N 30°11' W 093°18'0 0.0
2017-Oct-16 02:00N 30°11' W 093°18'0 0.0
2017-Oct-16 01:30N 30°11' W 093°18'0 0.0
2017-Oct-16 01:00N 30°11' W 093°18'0 0.0
2017-Oct-16 00:30N 30°12' W 093°18'0 0.0
2017-Oct-16 00:00N 30°12' W 093°18'0 0.0
2017-Oct-15 23:30N 30°12' W 093°18'0 0.0
2017-Oct-15 23:00N 30°12' W 093°18'0 0.0
2017-Oct-15 22:30N 30°11' W 093°18'0 0.0
2017-Oct-15 22:00N 30°11' W 093°18'0 0.0
2017-Oct-15 21:30N 30°12' W 093°18'0 0.0
2017-Oct-15 21:00N 30°11' W 093°18'0 0.0
2017-Oct-15 20:30N 30°11' W 093°18'0 0.0
2017-Oct-15 20:00N 30°11' W 093°18'0 0.0
2017-Oct-15 19:30N 30°11' W 093°18'0 0.0
2017-Oct-15 19:00N 30°11' W 093°18'0 0.1
2017-Oct-15 18:30N 30°12' W 093°18'0 0.1
2017-Oct-15 18:00N 30°11' W 093°18'0 0.0
2017-Oct-15 17:30N 30°11' W 093°18'0 0.0
2017-Oct-15 17:00N 30°11' W 093°18'0 0.0
2017-Oct-15 16:30N 30°11' W 093°18'0 0.0
2017-Oct-15 16:00N 30°11' W 093°18'0 0.0
2017-Oct-15 15:30N 30°11' W 093°18'0 0.3
2017-Oct-15 15:00N 30°11' W 093°18'0 0.0
2017-Oct-15 14:00N 30°11' W 093°18'0 0.0
2017-Oct-15 13:30N 30°11' W 093°18'0 0.0
2017-Oct-15 13:00N 30°11' W 093°18'0 0.1
2017-Oct-15 12:30N 30°11' W 093°18'0 0.1
2017-Oct-15 12:00N 30°11' W 093°18'0 0.0
2017-Oct-15 11:30N 30°11' W 093°18'0 0.0
2017-Oct-15 11:00N 30°11' W 093°18'0 0.1
2017-Oct-15 10:30N 30°11' W 093°18'0 0.1
2017-Oct-15 10:00N 30°11' W 093°18'0 0.0
2017-Oct-15 09:30N 30°11' W 093°18'0 0.0
2017-Oct-15 09:00N 30°11' W 093°18'0 0.0
2017-Oct-15 08:30N 30°11' W 093°18'0 0.1
2017-Oct-15 08:00N 30°11' W 093°18'0 0.0
2017-Oct-15 07:30N 30°11' W 093°18'0 0.0
2017-Oct-15 07:00N 30°11' W 093°18'0 0.0
2017-Oct-15 06:30N 30°11' W 093°18'0 0.0
2017-Oct-15 06:00N 30°11' W 093°18'0 0.0
2017-Oct-15 05:30N 30°11' W 093°18'0 0.0
2017-Oct-15 05:00N 30°11' W 093°18'0 0.1
2017-Oct-15 04:30N 30°11' W 093°18'0 0.0
2017-Oct-15 04:00N 30°11' W 093°18'0 0.0
2017-Oct-15 03:30N 30°11' W 093°18'0 0.0
2017-Oct-15 03:00N 30°11' W 093°18'0 0.0
2017-Oct-15 02:30N 30°11' W 093°18'0 0.0
2017-Oct-15 02:00N 30°11' W 093°18'0 0.0
2017-Oct-15 01:30N 30°11' W 093°18'0 0.0
2017-Oct-15 01:00N 30°11' W 093°18'0 0.0
2017-Oct-15 00:30N 30°11' W 093°18'0 0.0
2017-Oct-15 00:00N 30°11' W 093°18'0 0.0
2017-Oct-14 23:30N 30°11' W 093°18'0 0.0
2017-Oct-14 23:00N 30°11' W 093°18'0 0.0
2017-Oct-14 22:30N 30°11' W 093°18'0 0.0
2017-Oct-14 22:00N 30°11' W 093°18'0 0.0
2017-Oct-14 21:30N 30°11' W 093°18'0 0.0
2017-Oct-14 21:00N 30°11' W 093°18'0 0.0
2017-Oct-14 20:30N 30°11' W 093°18'0 0.0
2017-Oct-14 20:00N 30°11' W 093°18'0 0.0
2017-Oct-14 19:30N 30°11' W 093°18'0 0.0
2017-Oct-14 19:00N 30°11' W 093°18'0 0.0
2017-Oct-14 18:30N 30°11' W 093°18'0 0.0
2017-Oct-14 18:00N 30°11' W 093°18'0 0.0
2017-Oct-14 17:30N 30°11' W 093°18'0 0.0
2017-Oct-14 17:00N 30°11' W 093°18'0 0.0
2017-Oct-14 16:16N 30°11' W 093°18'0 0.0
2017-Oct-14 16:00N 30°11' W 093°18'0 0.0
2017-Oct-14 15:30N 30°11' W 093°18'0 0.0
2017-Oct-14 15:00N 30°11' W 093°18'0 0.0
2017-Oct-14 14:30N 30°11' W 093°18'0 0.0
2017-Oct-14 14:00N 30°11' W 093°18'0 0.0
2017-Oct-14 13:30N 30°11' W 093°18'0 0.5
2017-Oct-14 13:00N 30°11' W 093°18'0 0.1
2017-Oct-14 12:30N 30°12' W 093°18'0 0.0
2017-Oct-14 12:00N 30°12' W 093°18'0 0.0
2017-Oct-14 11:30N 30°12' W 093°18'0 0.0
2017-Oct-14 11:00N 30°12' W 093°18'0 0.0
2017-Oct-14 10:30N 30°12' W 093°18'0 0.1
2017-Oct-14 10:00N 30°11' W 093°18'0 0.0
2017-Oct-14 09:30N 30°12' W 093°18'0 0.0
2017-Oct-14 09:00N 30°12' W 093°18'  

Dump ship's entire track history